DCMYK EDFH-EHRD
Flight info
| Callsign | DCMYK |
|---|---|
| Flight time | 0h 32m |
| Altitude | 32000 |
| Route | RUDOT1T RUDOT Y180 BITBU Y181 DEMUL M624 BUB Y28 HELEN |
| Aircraft | C700/M-SBDGHM1RWXY/LB2 |
Departure
| Time | 2026-05-04 16:28 |
|---|---|
| Airport | Frankfurt-Hahn Airport (EDFH) |
Arrival
| Time | 2026-05-04 17:01 |
|---|---|
| Airport | Rotterdam The Hague Airport (EHRD) |
| Time | Latitude | Longitude | Altitude | Speed | Heading |
|---|---|---|---|---|---|
| 2026-05-04 16:12 | 49.94221 | 7.26361 | 1642 ft | 0 kts | 124° |
| 2026-05-04 16:23 | 49.94214 | 7.26356 | 1642 ft | 1 kts | 240° |
| 2026-05-04 16:24 | 49.94220 | 7.26309 | 1642 ft | 10 kts | 277° |
| 2026-05-04 16:26 | 49.94072 | 7.26140 | 1642 ft | 18 kts | 213° |
| 2026-05-04 16:26 | 49.93836 | 7.25779 | 1642 ft | 16 kts | 302° |
| 2026-05-04 16:27 | 49.93944 | 7.25517 | 1642 ft | 15 kts | 304° |
| 2026-05-04 16:28 | 49.94243 | 7.25772 | 1646 ft | 82 kts | 32° |
| 2026-05-04 16:28 | 49.97180 | 7.28389 | 4594 ft | 189 kts | 28° |
| 2026-05-04 16:29 | 50.02629 | 7.34061 | 9899 ft | 289 kts | 32° |
| 2026-05-04 16:30 | 50.08064 | 7.39453 | 14774 ft | 323 kts | 33° |
| 2026-05-04 16:31 | 50.12200 | 7.42752 | 17329 ft | 359 kts | 8° |
| 2026-05-04 16:31 | 50.18180 | 7.37261 | 21050 ft | 354 kts | 287° |
| 2026-05-04 16:32 | 50.16758 | 7.26413 | 24421 ft | 355 kts | 242° |
| 2026-05-04 16:33 | 50.15841 | 7.18793 | 26387 ft | 378 kts | 274° |
| 2026-05-04 16:33 | 50.17876 | 7.10995 | 28273 ft | 397 kts | 291° |
| 2026-05-04 16:34 | 50.20276 | 7.03108 | 30095 ft | 407 kts | 289° |
| 2026-05-04 16:34 | 50.21441 | 6.99050 | 30844 ft | 412 kts | 289° |
| 2026-05-04 16:35 | 50.25088 | 6.86719 | 32841 ft | 427 kts | 289° |
| 2026-05-04 16:35 | 50.28850 | 6.73832 | 33977 ft | 453 kts | 289° |
| 2026-05-04 16:36 | 50.30183 | 6.69270 | 33985 ft | 468 kts | 289° |
| 2026-05-04 16:36 | 50.32929 | 6.59861 | 33971 ft | 476 kts | 289° |
| 2026-05-04 16:37 | 50.36992 | 6.45820 | 33973 ft | 471 kts | 289° |
| 2026-05-04 16:38 | 50.42419 | 6.26958 | 33967 ft | 475 kts | 289° |
| 2026-05-04 16:39 | 50.49165 | 6.03288 | 33982 ft | 474 kts | 289° |
| 2026-05-04 16:40 | 50.54500 | 5.84396 | 33977 ft | 472 kts | 289° |
| 2026-05-04 16:41 | 50.61133 | 5.60702 | 33979 ft | 476 kts | 288° |
| 2026-05-04 16:43 | 50.67791 | 5.36681 | 33998 ft | 479 kts | 289° |
| 2026-05-04 16:43 | 50.70748 | 5.27263 | 33971 ft | 488 kts | 303° |
| 2026-05-04 16:43 | 50.73232 | 5.23556 | 33975 ft | 499 kts | 320° |
| 2026-05-04 16:45 | 50.91098 | 5.06293 | 33962 ft | 506 kts | 325° |
| 2026-05-04 16:46 | 51.06039 | 4.91842 | 33955 ft | 501 kts | 324° |
| 2026-05-04 16:47 | 51.17939 | 4.80221 | 33941 ft | 486 kts | 324° |
| 2026-05-04 16:48 | 51.26426 | 4.71868 | 28718 ft | 483 kts | 326° |
| 2026-05-04 16:48 | 51.29231 | 4.69129 | 27599 ft | 463 kts | 326° |
| 2026-05-04 16:49 | 51.34582 | 4.63844 | 24961 ft | 440 kts | 326° |
| 2026-05-04 16:49 | 51.39667 | 4.58810 | 22425 ft | 419 kts | 327° |
| 2026-05-04 16:50 | 51.44515 | 4.54001 | 19844 ft | 401 kts | 327° |
| 2026-05-04 16:50 | 51.49120 | 4.49419 | 17364 ft | 383 kts | 328° |
| 2026-05-04 16:51 | 51.53581 | 4.44976 | 14827 ft | 370 kts | 327° |
| 2026-05-04 16:51 | 51.55749 | 4.42808 | 13607 ft | 364 kts | 327° |
| 2026-05-04 16:51 | 51.59982 | 4.38574 | 11969 ft | 350 kts | 327° |
| 2026-05-04 16:52 | 51.64322 | 4.34222 | 11972 ft | 380 kts | 327° |
| 2026-05-04 16:52 | 51.66501 | 4.32036 | 11849 ft | 325 kts | 327° |
| 2026-05-04 16:53 | 51.69696 | 4.28824 | 8035 ft | 273 kts | 327° |
| 2026-05-04 16:53 | 51.73798 | 4.24690 | 6353 ft | 195 kts | 327° |
| 2026-05-04 16:54 | 51.75099 | 4.23616 | 4767 ft | 242 kts | 347° |
| 2026-05-04 16:55 | 51.80342 | 4.20114 | 3008 ft | 173 kts | 333° |
| 2026-05-04 16:55 | 51.82616 | 4.19306 | 2983 ft | 173 kts | 352° |
| 2026-05-04 16:56 | 51.84934 | 4.18843 | 2966 ft | 163 kts | 1° |
| 2026-05-04 16:56 | 51.87191 | 4.22756 | 2934 ft | 173 kts | 56° |
| 2026-05-04 16:57 | 51.87833 | 4.24402 | 2729 ft | 175 kts | 57° |
| 2026-05-04 16:57 | 51.89159 | 4.27701 | 2263 ft | 173 kts | 57° |
| 2026-05-04 16:58 | 51.90857 | 4.31937 | 1653 ft | 146 kts | 53° |
| 2026-05-04 16:58 | 51.91414 | 4.33323 | 1458 ft | 147 kts | 54° |
| 2026-05-04 16:59 | 51.92533 | 4.36130 | 1049 ft | 147 kts | 53° |
| 2026-05-04 17:00 | 51.94582 | 4.41246 | 302 ft | 117 kts | 52° |
| 2026-05-04 17:00 | 51.95584 | 4.43766 | -5 ft | 86 kts | 53° |
| 2026-05-04 17:01 | 51.95900 | 4.44556 | -8 ft | 19 kts | 57° |
| 2026-05-04 17:01 | 51.95811 | 4.44765 | -5 ft | 14 kts | 171° |
| 2026-05-04 17:02 | 51.95667 | 4.44456 | -5 ft | 22 kts | 238° |
| 2026-05-04 17:02 | 51.95478 | 4.43986 | -5 ft | 19 kts | 237° |
| 2026-05-04 17:03 | 51.95398 | 4.43783 | -5 ft | 24 kts | 235° |
| 2026-05-04 17:03 | 51.95325 | 4.43601 | -5 ft | 19 kts | 236° |
| 2026-05-04 17:03 | 51.95146 | 4.43613 | -5 ft | 22 kts | 147° |
| 2026-05-04 17:04 | 51.95017 | 4.43779 | -5 ft | 8 kts | 77° |
| 2026-05-04 17:04 | 51.95094 | 4.43964 | -5 ft | 14 kts | 55° |
| 2026-05-04 17:05 | 51.95077 | 4.44068 | -5 ft | 1 kts | 213° |
| 2026-05-04 17:05 | 51.95076 | 4.44063 | -5 ft | 0 kts | 237° |